Flight Track Log - Related Links

Times and Time Zones

All times are in EDT time to prevent confusion due to time zone crossing. See the LBQ783 flight status page for this flight to view local times or setup timezone preferences in your user account.

Time Position Orientation Groundspeed Altitude Reporting Facility
EDT Latitude Longitude Course Direction KTS MPH feet Rate Location/Type
Thu 06:20:13 PM 33.9500 -83.9000 189° South 154 177 3,300  Level Atlanta TRACON
Thu 06:21:02 PM 33.9256 -83.8686 133° Southeast 154 177 4,600 1,596 Climbing Atlanta Center
Thu 06:22:02 PM 33.8942 -83.8311 135° Southeast 165 190 6,200 1,550 Climbing Atlanta Center
Thu 06:23:02 PM 33.8586 -83.7936 139° Southeast 165 190 7,700 1,500 Climbing Atlanta Center
Thu 06:24:02 PM 33.8253 -83.7511 133° Southeast 165 190 9,200 1,450 Climbing Atlanta Center
Thu 06:25:00 PM 33.6490 -83.7624 189° South  Level Estimated
Thu 06:25:02 PM 33.7897 -83.7089 135° Southeast 172 198 10,600  Level Atlanta Center
Thu 06:26:02 PM 33.7497 -83.6667 139° Southeast 178 205 11,100 250 Climbing Atlanta Center
Thu 06:27:02 PM 33.7039 -83.6169 138° Southeast 216 249 11,100 750 Level Atlanta Center
Thu 06:28:02 PM 33.6514 -83.5747 146° Southeast 230 265 12,600 1,350 Climbing Atlanta Center
Thu 06:29:02 PM 33.6033 -83.5525 159° South 199 229 13,800 1,150 Climbing Atlanta Center
Thu 06:30:02 PM 33.5594 -83.5303 157° South 192 221 14,900 1,150 Climbing Atlanta Center
Thu 06:31:02 PM 33.5133 -83.5006 152° Southeast 192 221 16,100 1,250 Climbing Atlanta Center
Thu 06:32:02 PM 33.4631 -83.4761 158° South 192 221 17,400 1,050 Climbing Atlanta Center
Thu 06:33:02 PM 33.4172 -83.4464 152° Southeast 197 227 18,200 1,000 Climbing Atlanta Center
Thu 06:34:02 PM 33.3647 -83.4194 157° South 197 227 19,400 1,200 Climbing Atlanta Center
Thu 06:35:02 PM 33.3144 -83.3900 154° Southeast 197 227 20,600 800 Climbing Atlanta Center
Thu 06:36:02 PM 33.2517 -83.3606 159° South 204 235 21,000 200 Climbing Atlanta Center
Thu 06:37:02 PM 33.1869 -83.3264 156° South 238 274 21,000 900 Level Atlanta Center
Thu 06:38:02 PM 33.1261 -83.2972 158° South 244 281 22,800 1,000 Climbing Atlanta Center
Thu 06:39:02 PM 33.0694 -83.2631 153° Southeast 231 266 23,000 100 Climbing Atlanta Center
Thu 06:40:02 PM 33.0047 -83.2264 155° Southeast 247 284 23,000  Level Atlanta Center
Thu 06:41:02 PM 32.9375 -83.1875 154° Southeast 260 299 23,000  Level Atlanta Center
Thu 06:42:02 PM 32.8683 -83.1508 156° South 265 305 23,000  Level Atlanta Center
Thu 06:43:02 PM 32.7992 -83.1122 155° Southeast 270 311 23,000  Level Atlanta Center
Thu 06:44:02 PM 32.7386 -83.0831 158° South 270 311 23,000  Level Atlanta Center
Thu 06:45:02 PM 32.6714 -83.0494 157° South 275 316 23,000  Level Atlanta Center
Thu 06:46:02 PM 32.6022 -83.0106 155° Southeast 275 316 23,000  Level Atlanta Center
Thu 06:47:02 PM 32.5331 -82.9697 154° Southeast 270 311 23,000  Level Atlanta Center
Thu 06:49:06 PM 32.3878 -82.8925 156° South 281 323 23,000  Level Jacksonville Center
Thu 06:50:06 PM 32.3189 -82.8558 156° South 274 315 23,000 -250 Level Jacksonville Center
Thu 06:51:06 PM 32.2481 -82.8189 156° South 274 315 22,500 -600 Descending Jacksonville Center
Thu 06:52:06 PM 32.1769 -82.7822 156° South 274 315 21,800 -700 Descending Jacksonville Center
Thu 06:53:06 PM 32.0997 -82.7431 157° South 279 321 21,100 -700 Descending Jacksonville Center
Thu 06:54:06 PM 32.0286 -82.7064 156° South 279 321 20,400 -700 Descending Jacksonville Center
Thu 06:55:06 PM 31.9533 -82.6672 156° South 284 327 19,700 -700 Descending Jacksonville Center
Thu 06:56:06 PM 31.8822 -82.6308 157° South 284 327 19,000 -350 Descending Jacksonville Center
Thu 06:57:06 PM 31.8153 -82.5919 154° Southeast 278 320 19,000 -50 Level Jacksonville Center
Thu 06:58:06 PM 31.7486 -82.5578 156° South 268 308 18,900  Descending Jacksonville Center
Thu 06:59:06 PM 31.6858 -82.5239 155° Southeast 258 297 19,000 50 Climbing Jacksonville Center
Thu 07:00:06 PM 31.6208 -82.4900 156° South 253 291 19,000  Level Jacksonville Center
Thu 07:01:06 PM 31.5542 -82.4561 157° South 253 291 19,000  Level Jacksonville Center
Thu 07:02:06 PM 31.4892 -82.4247 158° South 253 291 19,000 -400 Level Jacksonville Center
Thu 07:03:06 PM 31.4244 -82.3886 155° Southeast 253 291 18,200 -1,700 Descending Jacksonville Center
Thu 07:04:06 PM 31.3386 -82.3503 159° South 276 318 15,600 -2,450 Descending Jacksonville Center
Thu 07:05:06 PM 31.2611 -82.3069 154° Southeast 294 338 13,300 -2,300 Descending Jacksonville Center
Thu 07:06:06 PM 31.1858 -82.2686 156° South 299 344 11,000 -2,063 Descending Jacksonville Center
Thu 07:06:42 PM 31.1439 -82.2419 151° Southeast 294 338 10,000 -641 Descending Jacksonville Center
Thu 07:07:49 PM 31.0686 -82.2086 159° South 242 278 9,900 -47 Descending Jacksonville Center
Thu 07:08:50 PM 31.0058 -82.1750 155° Southeast 232 267 9,900  Level Jacksonville Center
Thu 07:09:51 PM 30.9450 -82.1464 158° South 234 269 9,900 49 Level Jacksonville Center
Thu 07:10:52 PM 30.8864 -82.1181 157° South 235 270 10,000  Climbing Jacksonville Center
Thu 07:11:47 PM 30.8319 -82.0869 154° Southeast 234 269 9,900 -600 Descending Jacksonville Center
Thu 07:12:42 PM 30.7794 -82.0608 157° South 226 260 8,900 -931 Descending Jacksonville Center
Thu 07:13:43 PM 30.7144 -82.0275 156° South 253 291 8,100 -893 Descending Jacksonville Center
Thu 07:14:43 PM 30.6475 -81.9919 155° Southeast 262 302 7,100 -1,091 Descending Jacksonville Center
Thu 07:15:44 PM 30.5742 -81.9539 156° South 264 304 5,900 -1,230 Descending Jacksonville Center
Thu 07:16:45 PM 30.5072 -81.9233 159° South 266 306 4,600 -1,279 Descending Jacksonville Center

Login

Don't have an account? Register now (free) for customized features, flight alerts, and more!